Time;durP1;ratioP1;P1;durP2;ratioP2;P2;SDS_P1;SDS_P2;PMS_P1;PMS_P2;Temp;Humidity;BMP_temperature;BMP_pressure;BME280_temperature;BME280_humidity;BME280_pressure;Samples;Min_cycle;Max_cycle;Signal;HPM_P1;HPM_P2
2022/11/11 00:00:40;;;;;;;37.70;12.85;;;3.50;99.90;;;;;;4959083;28;20070;-59
2022/11/11 00:03:06;;;;;;;29.45;12.70;;;3.40;99.90;;;;;;4962381;28;20058;-58
2022/11/11 00:05:33;;;;;;;54.17;12.45;;;3.40;99.90;;;;;;4959380;28;20019;-58
2022/11/11 00:07:58;;;;;;;14.68;12.73;;;3.40;99.90;;;;;;4960635;28;20074;-58
2022/11/11 00:10:29;;;;;;;53.15;16.08;;;3.40;99.90;;;;;;4960140;28;20550;-60
2022/11/11 00:13:02;;;;;;;77.05;19.27;;;3.40;99.90;;;;;;4960265;28;20032;-58
2022/11/11 00:15:28;;;;;;;45.03;16.83;;;3.40;99.90;;;;;;4957263;28;20035;-58
2022/11/11 00:26:11;;;;;;;17.30;14.07;;;3.50;99.90;;;;;;4957065;28;20034;-59
2022/11/11 00:28:36;;;;;;;21.38;14.25;;;3.60;99.90;;;;;;4960482;28;20039;-58
2022/11/11 00:31:04;;;;;;;20.90;13.68;;;3.60;99.90;;;;;;4960911;28;20034;-59
2022/11/11 00:33:29;;;;;;;21.88;13.95;;;3.60;99.90;;;;;;4959931;28;20100;-58
2022/11/11 00:35:56;;;;;;;15.65;13.75;;;3.70;99.90;;;;;;4963104;28;20019;-58
2022/11/11 00:41:06;;;;;;;20.58;14.05;;;3.70;99.90;;;;;;4962950;28;20056;-58
2022/11/11 00:43:32;;;;;;;15.40;13.80;;;3.80;99.90;;;;;;4961034;28;20455;-59
2022/11/11 00:50:57;;;;;;;17.60;13.13;;;3.80;99.90;;;;;;4958602;28;20553;-58
2022/11/11 00:51:32;;;;;;;25.60;16.13;;;3.80;99.90;;;;;;4961354;28;20039;-58
2022/11/11 00:53:58;;;;;;;54.00;23.92;;;3.80;99.90;;;;;;4960990;28;20027;-58
2022/11/11 00:56:24;;;;;;;46.38;23.45;;;3.90;99.90;;;;;;4963269;28;20011;-57
2022/11/11 00:58:51;;;;;;;35.92;21.58;;;4.00;99.90;;;;;;4963175;28;20062;-59
2022/11/11 01:01:17;;;;;;;40.63;20.80;;;4.00;99.90;;;;;;4961871;28;20026;-59
2022/11/11 01:03:43;;;;;;;36.20;22.45;;;4.10;99.90;;;;;;4960543;28;20054;-58
2022/11/11 01:06:12;;;;;;;38.58;20.52;;;4.10;99.90;;;;;;4960221;28;20034;-59
2022/11/11 01:08:38;;;;;;;38.63;22.77;;;4.00;99.90;;;;;;4964370;28;20047;-59
2022/11/11 01:11:10;;;;;;;38.95;21.17;;;3.90;99.90;;;;;;4959186;28;20110;-58
2022/11/11 01:13:36;;;;;;;44.63;19.55;;;3.90;99.90;;;;;;4958576;28;20031;-58
2022/11/11 01:16:06;;;;;;;36.28;18.45;;;3.70;99.90;;;;;;4965325;28;20494;-58
2022/11/11 01:18:33;;;;;;;55.90;19.50;;;3.70;99.90;;;;;;4960398;28;20101;-59
2022/11/11 01:21:03;;;;;;;38.50;17.20;;;3.60;99.90;;;;;;4964356;28;20049;-58
2022/11/11 01:23:31;;;;;;;40.57;19.00;;;3.50;99.90;;;;;;4959854;28;20027;-58
2022/11/11 01:26:04;;;;;;;38.05;17.65;;;3.40;99.90;;;;;;4962276;28;20713;-58
2022/11/11 01:28:31;;;;;;;32.42;19.15;;;3.30;99.90;;;;;;4958818;28;20534;-59
2022/11/11 01:31:04;;;;;;;53.38;18.80;;;3.30;99.90;;;;;;4961826;28;20032;-59
2022/11/11 01:33:30;;;;;;;59.83;21.27;;;3.30;99.90;;;;;;4963452;28;20487;-59
2022/11/11 01:36:11;;;;;;;37.90;18.10;;;3.30;99.90;;;;;;4962644;28;20078;-60
2022/11/11 01:38:38;;;;;;;42.17;20.92;;;3.30;99.90;;;;;;4962413;28;20150;-59
2022/11/11 01:41:31;;;;;;;51.28;19.95;;;3.40;99.90;;;;;;4960219;28;20031;-58
2022/11/11 01:43:52;;;;;;;75.50;20.25;;;3.40;99.90;;;;;;4957700;28;20094;-58
2022/11/11 01:46:45;;;;;;;65.20;18.02;;;3.60;99.90;;;;;;4962647;28;20028;-58
2022/11/11 01:49:22;;;;;;;63.88;17.23;;;3.60;99.90;;;;;;4963476;28;20078;-61
2022/11/11 01:51:51;;;;;;;69.47;19.63;;;3.70;99.90;;;;;;4962242;28;20031;-59
2022/11/11 01:54:24;;;;;;;43.33;16.63;;;3.80;99.90;;;;;;4976857;28;20023;-59
2022/11/11 01:56:55;;;;;;;51.55;18.20;;;3.80;99.90;;;;;;4961983;28;20139;-59
2022/11/11 01:59:21;;;;;;;45.95;16.75;;;3.80;99.90;;;;;;4965909;28;20023;-59
2022/11/11 02:01:47;;;;;;;57.47;18.70;;;3.90;99.90;;;;;;4963475;28;20537;-60
2022/11/11 02:07:03;;;;;;;53.85;19.08;;;3.90;99.90;;;;;;4962929;28;20026;-59
2022/11/11 02:09:29;;;;;;;46.22;18.95;;;3.90;99.90;;;;;;4963856;28;20030;-59
2022/11/11 02:14:46;;;;;;;39.85;17.73;;;3.90;99.90;;;;;;4965212;28;20077;-59
2022/11/11 02:17:15;;;;;;;33.63;15.27;;;3.90;99.90;;;;;;4963064;28;20077;-59
2022/11/11 02:19:47;;;;;;;27.27;15.38;;;3.80;99.90;;;;;;4960905;28;20075;-58
2022/11/11 02:22:28;;;;;;;34.22;16.80;;;3.80;99.90;;;;;;4963323;28;20035;-59
2022/11/11 02:24:55;;;;;;;30.77;16.83;;;3.70;99.90;;;;;;4955654;28;20431;-59
2022/11/11 02:27:22;;;;;;;23.45;15.85;;;3.70;99.90;;;;;;4956416;28;20055;-59
2022/11/11 02:29:51;;;;;;;19.60;14.38;;;3.70;99.90;;;;;;4959660;28;20102;-59
2022/11/11 02:32:17;;;;;;;20.60;13.63;;;3.70;99.90;;;;;;4960391;28;20066;-59
2022/11/11 02:34:43;;;;;;;16.45;12.85;;;3.60;99.90;;;;;;4960196;28;20451;-59
2022/11/11 02:37:09;;;;;;;22.85;12.55;;;3.60;99.90;;;;;;4961053;28;20028;-58
2022/11/11 02:39:42;;;;;;;19.23;14.73;;;3.60;99.90;;;;;;4959911;28;20095;-58
2022/11/11 02:42:09;;;;;;;19.70;13.52;;;3.60;99.90;;;;;;4963578;28;20027;-58
2022/11/11 02:44:38;;;;;;;17.38;12.55;;;3.60;99.90;;;;;;4961125;28;20088;-59
2022/11/11 02:47:04;;;;;;;49.97;14.10;;;3.60;99.90;;;;;;4961016;28;20145;-59
2022/11/11 02:49:30;;;;;;;102.53;14.73;;;3.50;99.90;;;;;;4960814;28;20058;-59
2022/11/11 02:51:56;;;;;;;41.67;11.20;;;3.40;99.90;;;;;;4960286;28;20446;-58
2022/11/11 02:54:21;;;;;;;79.28;13.18;;;3.30;99.90;;;;;;4957776;28;20030;-59
2022/11/11 02:59:31;;;;;;;57.67;11.35;;;3.00;99.90;;;;;;4976674;28;20034;-60
2022/11/11 03:01:57;;;;;;;91.93;11.68;;;2.90;99.90;;;;;;4978980;28;20403;-59
2022/11/11 03:04:23;;;;;;;45.53;9.15;;;2.80;99.90;;;;;;4974853;28;20023;-58
2022/11/11 03:06:48;;;;;;;23.70;9.05;;;2.80;99.90;;;;;;4979523;28;20058;-61
2022/11/11 03:09:14;;;;;;;22.88;10.65;;;2.80;99.90;;;;;;4978134;28;20116;-59
2022/11/11 03:11:40;;;;;;;12.23;9.77;;;2.80;99.90;;;;;;4979849;28;20061;-59
2022/11/11 03:14:06;;;;;;;24.25;13.02;;;2.80;99.90;;;;;;4979724;28;20046;-59
2022/11/11 03:19:17;;;;;;;27.63;12.45;;;3.00;99.90;;;;;;4978341;28;20121;-60
2022/11/11 03:21:43;;;;;;;36.80;12.95;;;3.00;99.90;;;;;;4980840;28;20149;-59
2022/11/11 03:24:09;;;;;;;29.98;12.38;;;3.10;99.90;;;;;;4979345;28;20084;-60
2022/11/11 03:26:36;;;;;;;19.42;11.60;;;3.20;99.90;;;;;;4978935;28;20065;-60
2022/11/11 03:29:02;;;;;;;20.08;11.95;;;3.20;99.90;;;;;;4982153;28;20114;-59
2022/11/11 03:31:27;;;;;;;35.15;13.98;;;3.20;99.90;;;;;;4983409;28;20062;-60
2022/11/11 03:33:53;;;;;;;64.72;13.88;;;3.30;99.90;;;;;;4978255;28;20030;-59
2022/11/11 03:36:19;;;;;;;79.03;14.60;;;3.30;99.90;;;;;;4975011;28;20046;-58
2022/11/11 03:38:44;;;;;;;39.22;13.68;;;3.40;99.90;;;;;;4976863;28;20037;-60
2022/11/11 03:41:10;;;;;;;58.90;13.48;;;3.40;99.90;;;;;;4978833;28;20058;-59
2022/11/11 03:43:35;;;;;;;60.30;13.82;;;3.40;99.90;;;;;;4981197;28;20027;-59
2022/11/11 03:46:03;;;;;;;39.08;12.75;;;3.40;99.90;;;;;;4982089;28;20317;-60
2022/11/11 03:48:31;;;;;;;73.88;14.32;;;3.40;99.90;;;;;;4985123;28;20046;-59
2022/11/11 03:50:57;;;;;;;91.82;12.82;;;3.40;99.90;;;;;;4978178;28;20089;-59
2022/11/11 03:53:23;;;;;;;58.50;12.45;;;3.30;99.90;;;;;;4983746;28;20027;-59
2022/11/11 03:55:50;;;;;;;74.20;11.50;;;3.20;99.90;;;;;;4980562;28;20039;-59
2022/11/11 03:58:16;;;;;;;53.80;9.70;;;3.20;99.90;;;;;;4980800;28;20046;-59
2022/11/11 04:00:42;;;;;;;44.03;10.75;;;3.00;99.90;;;;;;4976918;28;20566;-59
2022/11/11 04:11:43;;;;;;;16.67;11.25;;;2.80;99.90;;;;;;5001178;28;20033;-59
2022/11/11 04:16:56;;;;;;;64.30;11.15;;;2.80;99.90;;;;;;4976549;28;20037;-59
2022/11/11 04:22:06;;;;;;;14.90;8.02;;;2.70;99.90;;;;;;4978407;28;20037;-59
2022/11/11 04:27:20;;;;;;;14.23;10.77;;;2.60;99.90;;;;;;4987307;28;20053;-58
2022/11/11 04:29:46;;;;;;;18.65;10.65;;;2.60;99.90;;;;;;4977932;28;20481;-59
2022/11/11 04:32:37;;;;;;;22.70;12.10;;;2.70;99.90;;;;;;4976100;28;20138;-58
2022/11/11 04:35:11;;;;;;;37.20;13.82;;;2.70;99.90;;;;;;4975422;28;20121;-58
2022/11/11 04:37:51;;;;;;;45.03;13.95;;;2.80;99.90;;;;;;4978669;28;20065;-59
2022/11/11 04:43:01;;;;;;;148.10;16.85;;;2.90;99.90;;;;;;4977281;28;20038;-58
2022/11/11 04:45:27;;;;;;;114.28;15.18;;;3.10;99.90;;;;;;4979798;28;20027;-58
2022/11/11 04:48:07;;;;;;;66.53;14.30;;;3.10;99.90;;;;;;4974477;28;20027;-58
2022/11/11 04:50:34;;;;;;;98.95;14.38;;;3.20;99.90;;;;;;4975932;28;20026;-59
2022/11/11 04:53:01;;;;;;;111.88;14.15;;;3.20;99.90;;;;;;4975654;28;20528;-59
2022/11/11 04:58:12;;;;;;;54.40;13.50;;;3.30;99.90;;;;;;4978807;28;20065;-59
2022/11/11 05:00:38;;;;;;;39.83;11.80;;;3.30;99.90;;;;;;4978003;28;20035;-58
2022/11/11 05:03:16;;;;;;;42.55;11.50;;;3.30;99.90;;;;;;4981322;28;20474;-58
2022/11/11 05:11:12;;;;;;;57.88;12.65;;;3.30;99.90;;;;;;4974353;28;20161;-59
2022/11/11 05:22:00;;;;;;;36.00;10.23;;;3.10;99.90;;;;;;4962382;28;20124;-60
2022/11/11 05:27:09;;;;;;;37.10;9.27;;;3.00;99.90;;;;;;4978955;28;20113;-58
2022/11/11 05:29:35;;;;;;;42.85;9.60;;;2.90;99.90;;;;;;4961390;28;20788;-58
2022/11/11 05:32:01;;;;;;;30.77;9.93;;;2.90;99.90;;;;;;4961186;28;20494;-59
2022/11/11 05:34:26;;;;;;;17.83;12.02;;;2.80;99.90;;;;;;4989975;28;20030;-60
2022/11/11 05:36:52;;;;;;;14.05;12.07;;;2.80;99.90;;;;;;4960468;28;20458;-58
2022/11/11 05:39:18;;;;;;;24.20;11.48;;;2.80;99.90;;;;;;4962278;28;20050;-59
2022/11/11 05:41:43;;;;;;;15.10;13.60;;;2.80;99.90;;;;;;4960837;28;20118;-59
2022/11/11 05:44:12;;;;;;;16.42;10.63;;;2.80;99.90;;;;;;4960503;28;20054;-59
2022/11/11 05:46:37;;;;;;;15.98;11.30;;;2.80;99.90;;;;;;4959931;28;20093;-59
2022/11/11 05:49:15;;;;;;;62.42;12.65;;;2.80;99.90;;;;;;4958750;28;20461;-58
2022/11/11 05:51:45;;;;;;;33.72;9.52;;;2.80;99.90;;;;;;4961250;28;20036;-59
2022/11/11 05:54:13;;;;;;;22.45;8.20;;;2.70;99.90;;;;;;4958542;28;20749;-59
2022/11/11 05:56:39;;;;;;;18.17;8.65;;;2.70;99.90;;;;;;4962438;28;20046;-58
2022/11/11 05:59:05;;;;;;;9.82;7.63;;;2.60;99.90;;;;;;4959011;28;20098;-58
2022/11/11 06:01:31;;;;;;;12.50;8.73;;;2.50;99.90;;;;;;4960754;28;20035;-59
2022/11/11 06:03:57;;;;;;;9.63;8.68;;;2.50;99.90;;;;;;4958036;28;20110;-58
2022/11/11 06:06:22;;;;;;;15.05;9.57;;;2.50;99.90;;;;;;4961752;28;20793;-59
2022/11/11 06:08:48;;;;;;;31.08;10.90;;;2.60;99.90;;;;;;4960869;28;20037;-59
2022/11/11 06:11:14;;;;;;;40.08;11.23;;;2.60;99.90;;;;;;4959317;28;20037;-58
2022/11/11 06:13:39;;;;;;;26.25;10.93;;;2.60;99.90;;;;;;4963032;28;20069;-58
2022/11/11 06:16:05;;;;;;;20.85;11.27;;;2.60;99.90;;;;;;4960650;28;20023;-59
2022/11/11 06:18:34;;;;;;;39.78;12.00;;;2.60;99.90;;;;;;4959672;28;20061;-59
2022/11/11 06:21:00;;;;;;;12.10;10.77;;;2.60;99.90;;;;;;4963580;28;20030;-57
2022/11/11 06:23:27;;;;;;;16.33;11.55;;;2.60;99.90;;;;;;4963820;28;20050;-58
2022/11/11 06:26:11;;;;;;;16.73;12.18;;;2.60;99.90;;;;;;4962879;28;20521;-59
2022/11/11 06:28:45;;;;;;;20.90;12.95;;;2.60;99.90;;;;;;4958760;28;20816;-58
2022/11/11 06:31:13;;;;;;;21.08;13.00;;;2.70;99.90;;;;;;4960754;28;20775;-59
2022/11/11 06:33:39;;;;;;;26.25;14.70;;;2.80;99.90;;;;;;4958271;28;20114;-59
2022/11/11 06:36:05;;;;;;;20.63;13.38;;;2.80;99.90;;;;;;4957647;28;20106;-59
2022/11/11 06:38:32;;;;;;;31.67;15.40;;;2.80;99.90;;;;;;4954868;28;20027;-59
2022/11/11 06:40:57;;;;;;;39.13;13.77;;;2.80;99.90;;;;;;4958323;28;20020;-59
2022/11/11 06:43:23;;;;;;;37.88;13.90;;;2.80;99.90;;;;;;4964634;28;20039;-60
2022/11/11 06:45:50;;;;;;;36.90;12.75;;;2.80;99.90;;;;;;4956774;28;20027;-57
2022/11/11 06:48:16;;;;;;;47.70;14.70;;;2.80;99.90;;;;;;4962985;28;20027;-59
2022/11/11 06:50:41;;;;;;;29.23;13.50;;;2.80;99.90;;;;;;4959975;28;20055;-58
2022/11/11 06:53:09;;;;;;;47.15;15.02;;;2.90;99.90;;;;;;4958940;28;20034;-58
2022/11/11 06:55:35;;;;;;;53.47;14.45;;;2.90;99.90;;;;;;4959163;28;20043;-58
2022/11/11 06:58:15;;;;;;;75.13;15.80;;;3.00;99.90;;;;;;4961600;28;20058;-60
2022/11/11 07:00:42;;;;;;;23.08;13.40;;;3.00;99.90;;;;;;4961827;28;20027;-59
2022/11/11 07:03:10;;;;;;;21.10;13.10;;;3.00;99.90;;;;;;4960009;28;20061;-58
2022/11/11 07:05:36;;;;;;;20.48;14.07;;;3.00;99.90;;;;;;4957366;28;20039;-59
2022/11/11 07:08:04;;;;;;;17.15;12.10;;;3.10;99.90;;;;;;4959239;28;20081;-59
2022/11/11 07:10:30;;;;;;;20.58;12.05;;;3.20;99.90;;;;;;4959152;28;20058;-61
2022/11/11 07:12:56;;;;;;;13.32;10.90;;;3.20;99.90;;;;;;4961684;28;20103;-58
2022/11/11 07:15:21;;;;;;;12.77;9.68;;;3.30;99.90;;;;;;4961449;28;20046;-59
2022/11/11 07:17:47;;;;;;;13.45;10.68;;;3.40;99.90;;;;;;4958728;28;20407;-59
2022/11/11 07:20:13;;;;;;;12.02;10.02;;;3.40;99.90;;;;;;4959671;28;20082;-60
2022/11/11 07:22:39;;;;;;;11.05;9.90;;;3.50;99.90;;;;;;4954797;28;20411;-59
2022/11/11 07:25:05;;;;;;;12.00;9.90;;;3.50;99.90;;;;;;4957781;28;20031;-59
2022/11/11 07:27:31;;;;;;;24.80;12.68;;;3.50;99.90;;;;;;4958281;28;20038;-58
2022/11/11 07:29:56;;;;;;;30.40;10.88;;;3.50;99.90;;;;;;4960288;28;20035;-60
2022/11/11 07:32:22;;;;;;;11.55;8.63;;;3.50;99.90;;;;;;4960716;28;20483;-59
2022/11/11 07:34:49;;;;;;;38.50;10.57;;;3.50;99.90;;;;;;4961225;28;20042;-59
2022/11/11 07:37:15;;;;;;;16.52;9.25;;;3.50;99.90;;;;;;4957947;28;20599;-60
2022/11/11 07:39:41;;;;;;;10.38;9.10;;;3.60;99.90;;;;;;4959120;28;20153;-59
2022/11/11 07:42:09;;;;;;;10.00;9.00;;;3.60;99.90;;;;;;4958037;28;20029;-59
2022/11/11 07:44:34;;;;;;;10.57;9.00;;;3.70;99.90;;;;;;4959346;28;20023;-58
2022/11/11 07:47:00;;;;;;;9.70;8.70;;;3.70;99.90;;;;;;4958891;28;20046;-59
2022/11/11 07:49:26;;;;;;;11.80;9.32;;;3.80;99.90;;;;;;4958642;28;20415;-59
2022/11/11 07:51:51;;;;;;;9.57;8.57;;;3.90;99.90;;;;;;4961824;28;20031;-60
2022/11/11 07:54:17;;;;;;;10.23;9.25;;;4.00;99.90;;;;;;4957366;28;21313;-59
2022/11/11 07:56:42;;;;;;;11.75;10.65;;;4.10;99.90;;;;;;4958819;28;20039;-59
2022/11/11 07:59:08;;;;;;;10.40;9.40;;;4.20;99.90;;;;;;4957417;28;20974;-58
2022/11/11 08:01:33;;;;;;;10.65;8.45;;;4.20;99.90;;;;;;4961617;28;20031;-59
2022/11/11 08:03:59;;;;;;;10.10;9.10;;;4.30;99.90;;;;;;4957906;28;20050;-59
2022/11/11 08:06:25;;;;;;;10.07;8.15;;;4.40;99.90;;;;;;4961434;28;20114;-59
2022/11/11 08:08:50;;;;;;;10.05;9.10;;;4.50;99.90;;;;;;4958054;28;20483;-59
2022/11/11 08:13:39;;;;;;;9.35;7.57;;;4.60;99.90;;;;;;4959924;28;20031;-59
2022/11/11 08:14:02;;;;;;;7.50;6.82;;;4.70;99.90;;;;;;4958114;28;20035;-59
2022/11/11 08:16:28;;;;;;;6.40;5.80;;;4.80;99.90;;;;;;4959348;28;20034;-58
2022/11/11 08:18:53;;;;;;;8.48;6.65;;;4.80;99.90;;;;;;4959511;28;20542;-59
2022/11/11 08:21:19;;;;;;;5.70;5.20;;;4.80;99.90;;;;;;4959343;28;20527;-60
2022/11/11 08:23:45;;;;;;;6.15;5.55;;;4.90;99.90;;;;;;4958264;28;20030;-60
2022/11/11 08:26:10;;;;;;;7.28;6.63;;;5.00;99.90;;;;;;4958528;28;20036;-59
2022/11/11 08:28:36;;;;;;;7.63;6.93;;;5.10;99.90;;;;;;4956674;28;20027;-59
2022/11/11 08:31:02;;;;;;;7.85;7.05;;;5.20;99.90;;;;;;4961064;28;20047;-59
2022/11/11 08:33:28;;;;;;;9.35;8.10;;;5.40;99.90;;;;;;4962035;28;20027;-61
2022/11/11 08:35:54;;;;;;;8.20;7.40;;;5.50;99.90;;;;;;4959494;28;20034;-59
2022/11/11 08:38:22;;;;;;;8.18;7.40;;;5.60;99.90;;;;;;4956709;28;20038;-59
2022/11/11 08:40:48;;;;;;;8.15;7.35;;;5.70;99.90;;;;;;4959844;28;20452;-60
2022/11/11 08:43:14;;;;;;;7.45;6.75;;;5.90;99.90;;;;;;4958663;28;20562;-59
2022/11/11 08:45:39;;;;;;;6.47;5.88;;;6.00;99.90;;;;;;4957358;28;20039;-59
2022/11/11 08:48:08;;;;;;;6.45;5.85;;;6.10;99.90;;;;;;4958640;28;20099;-59
2022/11/11 08:50:38;;;;;;;5.00;4.55;;;6.30;99.90;;;;;;4959255;28;20033;-60
2022/11/11 08:53:08;;;;;;;4.93;4.53;;;6.30;99.90;;;;;;4956203;28;20142;-59
2022/11/11 08:55:35;;;;;;;7.97;5.50;;;6.20;99.90;;;;;;4960712;28;20039;-58
2022/11/11 08:58:03;;;;;;;5.40;4.90;;;6.30;99.90;;;;;;4961627;28;20085;-59
2022/11/11 09:00:31;;;;;;;4.90;4.40;;;6.60;99.90;;;;;;4964710;28;20093;-59
2022/11/11 09:03:05;;;;;;;5.55;5.00;;;6.90;99.90;;;;;;4964811;28;20051;-60
2022/11/11 09:05:31;;;;;;;4.72;4.30;;;7.10;99.90;;;;;;4961385;28;20502;-59
2022/11/11 09:08:02;;;;;;;5.18;4.78;;;7.30;99.90;;;;;;4961507;28;20031;-59
2022/11/11 09:10:27;;;;;;;4.93;4.25;;;7.50;99.90;;;;;;4959045;28;20023;-58
2022/11/11 09:12:59;;;;;;;5.22;4.72;;;7.70;99.90;;;;;;4959187;28;20026;-59
2022/11/11 09:15:26;;;;;;;5.22;4.78;;;8.00;99.90;;;;;;4966483;28;20035;-58
2022/11/11 09:17:52;;;;;;;5.85;5.00;;;8.30;99.90;;;;;;4965473;28;20030;-59
2022/11/11 09:20:18;;;;;;;4.35;3.95;;;8.60;99.90;;;;;;4967226;28;20483;-60
2022/11/11 09:22:47;;;;;;;4.13;3.70;;;8.80;99.90;;;;;;4964311;28;20039;-59
2022/11/11 09:25:14;;;;;;;3.78;3.47;;;9.10;99.90;;;;;;4959776;28;20035;-59
2022/11/11 09:27:41;;;;;;;3.72;3.42;;;9.40;99.90;;;;;;4961919;28;20403;-59
2022/11/11 09:30:08;;;;;;;3.85;3.55;;;9.50;99.90;;;;;;4976797;28;20019;-61
2022/11/11 09:32:34;;;;;;;3.70;3.40;;;9.70;99.90;;;;;;4962124;28;20027;-60
2022/11/11 09:34:59;;;;;;;4.00;3.45;;;10.00;99.90;;;;;;4957087;28;20513;-59
2022/11/11 09:37:26;;;;;;;3.70;3.40;;;10.20;99.90;;;;;;4965576;28;20045;-59
2022/11/11 09:39:51;;;;;;;3.50;3.20;;;10.40;99.90;;;;;;4955729;28;20027;-59
2022/11/11 09:42:23;;;;;;;3.53;3.25;;;10.40;99.90;;;;;;4963540;28;20046;-59
2022/11/11 09:45:13;;;;;;;4.00;3.70;;;10.60;99.90;;;;;;4962841;28;20542;-60
2022/11/11 09:48:19;;;;;;;3.92;3.63;;;10.80;99.90;;;;;;4959344;28;20050;-58
2022/11/11 09:50:53;;;;;;;4.53;3.72;;;11.00;99.90;;;;;;4984315;28;20050;-60
2022/11/11 09:53:41;;;;;;;3.53;3.30;;;11.20;99.90;;;;;;4981780;28;20038;-59
2022/11/11 09:56:16;;;;;;;4.15;3.78;;;11.20;99.90;;;;;;4975221;28;20035;-59
2022/11/11 09:58:47;;;;;;;4.10;3.80;;;11.30;99.90;;;;;;4960713;28;20130;-61
2022/11/11 10:01:20;;;;;;;4.03;3.72;;;11.40;99.90;;;;;;4960968;28;20036;-60
2022/11/11 10:03:59;;;;;;;4.15;3.85;;;11.50;99.90;;;;;;4961783;28;20031;-59
2022/11/11 10:06:32;;;;;;;4.15;3.38;;;11.50;99.90;;;;;;4960718;28;20398;-59
2022/11/11 10:09:23;;;;;;;3.80;3.50;;;12.00;99.90;;;;;;4959851;28;20028;-60
2022/11/11 10:12:09;;;;;;;5.00;4.55;;;12.20;99.90;;;;;;4959777;28;20035;-60
2022/11/11 10:14:49;;;;;;;5.28;4.78;;;12.60;99.90;;;;;;4958121;28;20121;-60
2022/11/11 10:17:39;;;;;;;5.85;4.43;;;12.70;99.90;;;;;;4979418;28;20173;-58
2022/11/11 10:20:27;;;;;;;5.40;4.13;;;13.00;99.90;;;;;;4960016;28;20514;-60
2022/11/11 10:23:12;;;;;;;5.55;5.07;;;13.20;99.90;;;;;;4959808;28;20035;-60
2022/11/11 10:25:43;;;;;;;5.75;5.25;;;13.40;99.90;;;;;;4961705;28;20031;-60
2022/11/11 10:28:17;;;;;;;4.10;3.80;;;13.10;99.90;;;;;;4961497;28;20031;-60
2022/11/11 10:30:44;;;;;;;4.20;3.78;;;12.80;99.90;;;;;;4961639;28;20115;-60
2022/11/11 10:33:28;;;;;;;4.82;3.78;;;12.40;99.90;;;;;;4961169;28;20034;-60
2022/11/11 10:35:59;;;;;;;4.75;4.25;;;12.10;99.90;;;;;;4962806;28;20050;-59
2022/11/11 10:38:40;;;;;;;5.13;4.55;;;11.70;99.90;;;;;;4964365;28;20031;-59
2022/11/11 10:41:17;;;;;;;5.63;5.13;;;11.50;99.90;;;;;;4959412;28;20023;-59
2022/11/11 10:43:46;;;;;;;5.38;4.95;;;11.50;99.90;;;;;;4960108;28;20027;-60
2022/11/11 10:46:25;;;;;;;5.50;5.07;;;11.60;99.90;;;;;;4959233;28;20604;-60
2022/11/11 10:49:11;;;;;;;5.22;4.72;;;11.80;99.90;;;;;;4956778;28;20031;-61
2022/11/11 10:51:54;;;;;;;6.95;4.80;;;11.90;99.90;;;;;;4957714;28;20058;-59
2022/11/11 10:54:38;;;;;;;5.53;5.03;;;11.90;99.90;;;;;;4965944;28;20414;-60
2022/11/11 10:57:39;;;;;;;4.28;3.88;;;11.80;99.90;;;;;;4960835;28;20109;-60
2022/11/11 11:00:07;;;;;;;5.25;4.85;;;11.60;99.90;;;;;;4959293;28;20085;-60
2022/11/11 11:02:39;;;;;;;8.15;5.28;;;11.30;99.90;;;;;;4958354;28;20038;-59
2022/11/11 11:05:09;;;;;;;5.35;4.88;;;11.10;99.90;;;;;;4960270;28;20035;-59
2022/11/11 11:07:50;;;;;;;4.97;4.47;;;11.20;99.90;;;;;;4974677;28;20035;-60
2022/11/11 11:10:38;;;;;;;5.60;4.88;;;11.30;99.90;;;;;;4959990;28;20762;-60
2022/11/11 11:13:07;;;;;;;4.90;4.50;;;11.40;99.90;;;;;;4958683;28;20117;-60
2022/11/11 11:15:43;;;;;;;5.45;4.93;;;11.60;99.90;;;;;;4958117;28;20039;-60
2022/11/11 11:18:15;;;;;;;5.20;4.68;;;11.80;99.90;;;;;;4959417;28;20066;-60
2022/11/11 11:20:57;;;;;;;5.90;4.55;;;12.00;99.90;;;;;;4959966;28;20027;-59
2022/11/11 11:23:53;;;;;;;6.00;5.38;;;12.10;99.90;;;;;;4961321;28;20129;-59
2022/11/11 11:26:18;;;;;;;5.10;4.70;;;12.20;99.90;;;;;;4956631;28;20036;-59
2022/11/11 11:29:00;;;;;;;5.10;4.55;;;12.20;99.90;;;;;;4959684;28;20522;-59
2022/11/11 11:31:46;;;;;;;5.65;3.85;;;12.20;99.90;;;;;;4955065;28;20126;-59
2022/11/11 11:34:12;;;;;;;4.72;4.32;;;12.10;99.90;;;;;;4957197;28;20114;-59
2022/11/11 11:36:37;;;;;;;6.25;4.60;;;12.10;99.90;;;;;;4958449;28;20171;-59
2022/11/11 11:39:03;;;;;;;5.20;4.70;;;12.10;99.90;;;;;;4954264;28;20098;-59
2022/11/11 11:41:42;;;;;;;5.50;4.05;;;12.10;99.90;;;;;;4959847;28;20150;-59
2022/11/11 11:44:37;;;;;;;4.53;4.13;;;12.10;99.90;;;;;;4957761;28;20028;-58
2022/11/11 11:47:16;;;;;;;4.40;3.97;;;12.20;99.90;;;;;;4960504;28;20031;-59
2022/11/11 11:49:58;;;;;;;4.35;4.00;;;12.40;99.90;;;;;;4958861;28;20027;-58
2022/11/11 11:52:31;;;;;;;5.30;4.30;;;12.40;99.90;;;;;;4959029;28;20503;-60
2022/11/11 11:55:17;;;;;;;4.50;4.20;;;12.70;99.90;;;;;;4958018;28;20102;-59
2022/11/11 11:57:51;;;;;;;5.32;4.13;;;12.90;99.90;;;;;;4963118;28;20039;-59
2022/11/11 12:00:29;;;;;;;4.72;4.03;;;13.10;99.90;;;;;;4960008;28;20042;-60
2022/11/11 12:03:27;;;;;;;4.70;4.28;;;13.20;99.90;;;;;;4958244;28;20019;-60
2022/11/11 12:06:30;;;;;;;4.07;3.78;;;13.20;99.90;;;;;;4953395;28;20038;-60
2022/11/11 12:09:23;;;;;;;4.43;4.00;;;13.10;99.90;;;;;;4960949;28;20486;-59
2022/11/11 12:12:28;;;;;;;4.78;4.38;;;13.20;99.90;;;;;;4959473;28;20026;-60
2022/11/11 12:15:05;;;;;;;5.90;4.10;;;13.30;99.90;;;;;;4978815;28;20031;-59
2022/11/11 12:17:49;;;;;;;4.90;3.92;;;13.30;99.90;;;;;;4981507;28;20034;-58
2022/11/11 12:21:06;;;;;;;4.10;3.80;;;13.50;99.90;;;;;;4978387;28;20035;-58
2022/11/11 12:23:40;;;;;;;4.57;4.13;;;13.80;99.90;;;;;;4977369;28;20031;-59
2022/11/11 12:26:27;;;;;;;4.82;4.22;;;14.00;99.90;;;;;;4974525;28;20026;-59
2022/11/11 12:29:17;;;;;;;5.18;3.80;;;13.90;99.90;;;;;;4975258;28;20030;-58
2022/11/11 12:32:01;;;;;;;5.47;4.03;;;13.80;99.90;;;;;;4984618;28;20039;-59
2022/11/11 12:35:07;;;;;;;5.97;5.45;;;13.80;99.90;;;;;;4981438;28;20092;-59
2022/11/11 12:38:00;;;;;;;5.57;4.28;;;13.80;99.90;;;;;;4982283;28;20038;-59
2022/11/11 12:40:44;;;;;;;5.15;4.45;;;13.90;99.90;;;;;;4982882;28;20054;-58
2022/11/11 12:43:19;;;;;;;5.25;4.07;;;13.80;99.90;;;;;;4980657;28;20153;-60
2022/11/11 12:45:46;;;;;;;5.28;3.85;;;13.90;99.90;;;;;;4982095;28;20035;-59
2022/11/11 12:48:30;;;;;;;4.53;4.18;;;13.90;99.90;;;;;;4982888;28;20155;-58
2022/11/11 12:51:30;;;;;;;4.60;4.20;;;13.90;99.90;;;;;;4981673;28;20061;-59
2022/11/11 12:54:22;;;;;;;5.10;4.60;;;13.80;99.90;;;;;;4990638;28;20023;-59
2022/11/11 12:57:24;;;;;;;4.30;4.00;;;13.80;99.90;;;;;;4980590;28;20109;-59
2022/11/11 13:00:19;;;;;;;5.07;4.20;;;13.80;99.90;;;;;;4981032;28;20035;-59
2022/11/11 13:02:58;;;;;;;4.82;3.88;;;13.90;99.90;;;;;;4983371;28;20066;-60
2022/11/11 13:05:44;;;;;;;6.20;4.30;;;14.00;99.90;;;;;;4982712;28;20042;-59
2022/11/11 13:08:25;;;;;;;4.57;4.18;;;14.10;99.90;;;;;;4982761;28;20081;-59
2022/11/11 13:11:08;;;;;;;4.43;4.03;;;14.30;99.90;;;;;;4982893;28;20037;-59
2022/11/11 13:13:50;;;;;;;4.78;4.38;;;14.40;99.90;;;;;;4981699;28;20106;-59
2022/11/11 13:16:19;;;;;;;7.57;4.45;;;14.50;99.90;;;;;;5012722;28;20037;-59
2022/11/11 13:19:21;;;;;;;6.75;4.63;;;14.50;99.90;;;;;;4977408;28;20524;-59
2022/11/11 13:22:06;;;;;;;4.68;4.18;;;14.60;99.90;;;;;;4992872;28;20155;-59
2022/11/11 13:24:34;;;;;;;5.25;4.60;;;14.70;99.90;;;;;;4983199;28;20033;-59
2022/11/11 13:27:05;;;;;;;7.93;4.43;;;14.90;99.90;;;;;;4981895;28;20027;-59
2022/11/11 13:29:55;;;;;;;6.45;4.80;;;15.00;99.90;;;;;;4979828;28;20023;-59
2022/11/11 13:32:28;;;;;;;4.25;3.90;;;15.10;99.90;;;;;;4983351;28;20643;-60
2022/11/11 13:34:55;;;;;;;6.05;4.30;;;15.20;99.90;;;;;;4986320;28;20536;-59
2022/11/11 13:37:32;;;;;;;5.72;4.35;;;15.30;99.90;;;;;;4977964;28;20602;-59
2022/11/11 13:40:08;;;;;;;4.90;4.22;;;15.40;99.90;;;;;;4979506;28;20039;-59
2022/11/11 13:42:45;;;;;;;4.60;4.20;;;15.50;99.90;;;;;;4978379;28;20043;-59
2022/11/11 13:45:42;;;;;;;7.07;4.55;;;15.60;99.90;;;;;;4976949;28;20391;-60
2022/11/11 13:48:35;;;;;;;5.40;4.32;;;15.60;99.90;;;;;;4984835;28;20034;-58
2022/11/11 13:51:39;;;;;;;4.63;4.20;;;15.60;99.90;;;;;;4980190;28;20015;-59
2022/11/11 13:54:19;;;;;;;7.55;4.18;;;15.60;99.90;;;;;;4981626;28;20018;-59
2022/11/11 13:56:47;;;;;;;3.88;3.50;;;15.70;99.90;;;;;;4979769;28;20126;-59
2022/11/11 13:59:26;;;;;;;2.63;2.22;;;15.50;99.90;;;;;;4981851;28;20038;-60
2022/11/11 14:02:19;;;;;;;3.47;2.70;;;15.50;99.90;;;;;;4981446;28;20042;-59
2022/11/11 14:05:09;;;;;;;3.50;3.22;;;15.50;99.90;;;;;;4981273;28;20069;-58
2022/11/11 14:07:43;;;;;;;5.30;4.00;;;15.50;99.90;;;;;;4980067;28;20035;-59
2022/11/11 14:10:30;;;;;;;5.90;3.03;;;15.50;99.90;;;;;;4978939;28;20117;-59
2022/11/11 14:13:20;;;;;;;3.83;3.33;;;15.50;99.90;;;;;;4979209;28;20113;-59